createdAt,value
2019-05-10T00:00:33.084Z,3.62
2019-05-10T00:02:53.837Z,2.40
2019-05-10T00:05:14.096Z,3.15
2019-05-10T00:07:34.467Z,2.58
2019-05-10T00:09:36.683Z,3.00
2019-05-10T00:12:01.438Z,3.08
2019-05-10T00:14:31.540Z,2.87
2019-05-10T00:16:33.755Z,3.05
2019-05-10T00:18:35.800Z,2.17
2019-05-10T00:20:38.836Z,2.37
2019-05-10T00:22:41.479Z,2.00
2019-05-10T00:24:43.695Z,2.25
2019-05-10T00:26:45.761Z,2.10
2019-05-10T00:28:49.110Z,2.08
2019-05-10T00:32:52.936Z,1.85
2019-05-10T00:34:56.319Z,1.87
2019-05-10T00:36:58.759Z,2.15
2019-05-10T00:41:03.934Z,1.87
2019-05-10T00:43:06.053Z,1.67
2019-05-10T00:45:08.311Z,1.70
2019-05-10T00:47:10.733Z,2.10
2019-05-10T00:51:14.508Z,1.95
2019-05-10T00:53:16.714Z,1.80
2019-05-10T00:55:19.630Z,1.92
2019-05-10T00:57:22.022Z,1.80
2019-05-10T00:59:24.231Z,1.90
2019-05-10T01:01:26.226Z,2.00
2019-05-10T01:03:28.265Z,1.98
2019-05-10T01:05:30.331Z,1.87
2019-05-10T01:07:32.457Z,1.87
2019-05-10T01:09:34.584Z,1.72
2019-05-10T01:11:37.446Z,1.90
2019-05-10T01:13:39.439Z,1.98
2019-05-10T01:15:41.621Z,1.80
2019-05-10T01:17:43.718Z,2.10
2019-05-10T01:19:45.758Z,2.35
2019-05-10T01:21:47.796Z,1.75
2019-05-10T01:23:50.111Z,1.90
2019-05-10T01:25:52.139Z,2.27
2019-05-10T01:27:54.232Z,2.22
2019-05-10T01:29:56.596Z,2.10
2019-05-10T01:34:00.477Z,2.05
2019-05-10T01:36:02.793Z,2.12
2019-05-10T01:38:04.810Z,2.30
2019-05-10T01:40:06.939Z,2.62
2019-05-10T01:42:09.218Z,2.30
2019-05-10T01:44:11.223Z,2.00
2019-05-10T01:46:13.243Z,2.75
2019-05-10T01:48:15.571Z,2.30
2019-05-10T01:50:17.614Z,2.33
2019-05-10T01:52:19.904Z,2.27
2019-05-10T01:54:22.577Z,2.17
2019-05-10T01:56:24.744Z,2.10
2019-05-10T01:58:27.047Z,2.30
2019-05-10T02:00:29.434Z,2.12
2019-05-10T02:02:31.419Z,1.98
2019-05-10T02:04:33.430Z,2.27
2019-05-10T02:06:35.661Z,2.37
2019-05-10T02:08:37.684Z,2.05
2019-05-10T02:10:39.874Z,2.00
2019-05-10T02:12:42.157Z,2.15
2019-05-10T02:14:44.179Z,2.00
2019-05-10T02:16:46.208Z,1.85
2019-05-10T02:18:48.547Z,1.85
2019-05-10T02:22:52.412Z,1.50
2019-05-10T02:24:56.163Z,1.70
2019-05-10T02:26:58.149Z,1.87
2019-05-10T02:29:00.231Z,1.80
2019-05-10T02:31:02.688Z,1.60
2019-05-10T02:35:07.621Z,1.62
2019-05-10T02:37:10.091Z,1.85
2019-05-10T02:39:12.196Z,1.60
2019-05-10T02:41:14.516Z,1.47
2019-05-10T02:43:16.882Z,1.80
2019-05-10T02:45:19.106Z,1.35
2019-05-10T02:49:23.259Z,1.82
2019-05-10T02:51:25.456Z,1.40
2019-05-10T02:53:27.798Z,1.72
2019-05-10T02:55:30.574Z,2.35
2019-05-10T02:57:35.687Z,1.30
2019-05-10T02:59:37.978Z,1.50
2019-05-10T03:01:44.448Z,1.60
2019-05-10T03:03:48.991Z,1.75
2019-05-10T03:05:52.838Z,1.57
2019-05-10T03:07:58.011Z,1.47
2019-05-10T03:10:02.089Z,1.90
2019-05-10T03:12:38.205Z,1.22
2019-05-10T03:14:40.648Z,1.30
2019-05-10T03:18:48.885Z,1.37
2019-05-10T03:20:54.830Z,1.50
2019-05-10T03:22:57.415Z,1.40
2019-05-10T03:24:59.412Z,1.42
2019-05-10T03:27:01.716Z,1.77
2019-05-10T03:29:05.601Z,1.65
2019-05-10T03:31:07.613Z,2.20
2019-05-10T03:33:09.849Z,1.98
2019-05-10T03:35:12.186Z,1.95
2019-05-10T03:37:14.669Z,2.22
2019-05-10T03:41:18.838Z,1.90
2019-05-10T03:43:20.867Z,1.65
2019-05-10T03:45:25.505Z,1.80
2019-05-10T03:47:27.532Z,2.00
2019-05-10T03:49:29.600Z,2.62
2019-05-10T03:51:31.740Z,2.05
2019-05-10T03:53:33.803Z,1.67
2019-05-10T03:55:35.866Z,1.90
2019-05-10T03:57:38.589Z,2.15
2019-05-10T03:59:41.541Z,2.22
2019-05-10T04:01:43.871Z,2.02
2019-05-10T04:03:46.129Z,2.92
2019-05-10T04:05:48.176Z,1.98
2019-05-10T04:07:50.292Z,1.37
2019-05-10T04:09:52.805Z,1.95
2019-05-10T04:11:54.835Z,1.52
2019-05-10T04:13:56.817Z,1.50
2019-05-10T04:15:58.866Z,1.50
2019-05-10T04:18:01.275Z,1.70
2019-05-10T04:20:04.469Z,1.77
2019-05-10T04:22:06.487Z,1.50
2019-05-10T04:24:09.625Z,1.57
2019-05-10T04:26:11.666Z,1.98
2019-05-10T04:28:13.850Z,1.85
2019-05-10T04:30:16.881Z,1.90
2019-05-10T04:32:18.878Z,1.82
2019-05-10T04:34:21.243Z,2.83
2019-05-10T04:38:25.101Z,2.30
2019-05-10T04:40:27.455Z,2.65
2019-05-10T04:42:30.846Z,2.27
2019-05-10T04:44:32.912Z,2.50
2019-05-10T04:46:35.348Z,2.65
2019-05-10T04:50:39.354Z,2.20
2019-05-10T04:52:41.523Z,2.67
2019-05-10T04:54:43.721Z,2.50
2019-05-10T04:56:45.758Z,2.27
2019-05-10T04:58:48.239Z,1.77
2019-05-10T05:02:54.842Z,2.22
2019-05-10T05:04:57.583Z,2.45
2019-05-10T05:06:59.694Z,2.90
2019-05-10T05:09:02.198Z,2.72
2019-05-10T05:11:05.729Z,2.50
2019-05-10T05:13:07.746Z,2.25
2019-05-10T05:15:10.342Z,2.50
2019-05-10T05:17:12.829Z,2.72
2019-05-10T05:21:16.544Z,2.58
2019-05-10T05:23:19.043Z,2.40
2019-05-10T05:27:24.519Z,3.83
2019-05-10T05:29:27.026Z,2.33
2019-05-10T05:33:30.659Z,2.42
2019-05-10T05:35:33.452Z,2.37
2019-05-10T05:37:35.619Z,2.30
2019-05-10T05:39:37.665Z,2.65
2019-05-10T05:41:49.062Z,2.52
2019-05-10T05:43:46.312Z,2.05
2019-05-10T05:45:47.909Z,2.10
2019-05-10T05:47:50.007Z,1.95
2019-05-10T05:49:52.661Z,2.05
2019-05-10T05:51:54.661Z,2.02
2019-05-10T05:55:48.697Z,2.42
2019-05-10T05:59:57.351Z,2.02
2019-05-10T06:02:00.913Z,2.00
2019-05-10T06:04:06.305Z,2.27
2019-05-10T06:06:15.335Z,1.92
2019-05-10T06:08:23.039Z,2.35
2019-05-10T06:10:19.587Z,2.02
2019-05-10T06:12:20.672Z,2.30
2019-05-10T06:14:22.735Z,2.02
2019-05-10T06:16:25.099Z,3.35
2019-05-10T06:18:27.272Z,1.98
2019-05-10T06:20:29.513Z,2.83
2019-05-10T06:22:31.698Z,2.15
2019-05-10T06:24:34.425Z,2.40
2019-05-10T06:26:36.931Z,2.35
2019-05-10T06:30:43.365Z,2.00
2019-05-10T06:32:45.872Z,2.22
2019-05-10T06:36:49.890Z,1.72
2019-05-10T06:38:52.176Z,1.85
2019-05-10T06:40:54.209Z,1.85
2019-05-10T06:42:56.196Z,1.70
2019-05-10T06:45:05.062Z,1.92
2019-05-10T06:47:08.267Z,2.00
2019-05-10T06:49:10.907Z,2.02
2019-05-10T06:51:12.737Z,2.10
2019-05-10T06:53:15.084Z,1.60
2019-05-10T06:55:17.266Z,1.70
2019-05-10T06:57:19.537Z,1.45
2019-05-10T06:59:24.769Z,1.32
2019-05-10T07:01:25.788Z,1.57
2019-05-10T07:03:27.972Z,1.80
2019-05-10T07:05:30.050Z,1.57
2019-05-10T07:07:43.383Z,1.67
2019-05-10T07:10:01.069Z,1.92
2019-05-10T07:11:40.344Z,1.80
2019-05-10T07:13:47.205Z,2.10
2019-05-10T07:15:46.801Z,2.17
2019-05-10T07:17:48.845Z,1.80
2019-05-10T07:19:54.863Z,2.08
2019-05-10T07:21:54.929Z,1.80
2019-05-10T07:23:57.147Z,1.65
2019-05-10T07:25:59.210Z,1.75
2019-05-10T07:28:01.528Z,2.20
2019-05-10T07:30:03.960Z,1.92
2019-05-10T07:34:09.863Z,1.67
2019-05-10T07:36:15.249Z,1.82
2019-05-10T07:38:16.102Z,2.15
2019-05-10T07:40:19.006Z,1.75
2019-05-10T07:42:21.030Z,1.85
2019-05-10T07:44:23.082Z,1.60
2019-05-10T07:46:25.305Z,1.80
2019-05-10T07:48:27.314Z,2.12
2019-05-10T07:50:29.427Z,1.62
2019-05-10T07:52:36.766Z,2.10
2019-05-10T07:54:37.705Z,1.80
2019-05-10T07:56:45.676Z,2.30
2019-05-10T07:58:44.932Z,1.45
2019-05-10T08:00:47.134Z,1.45
2019-05-10T08:02:59.246Z,2.02
2019-05-10T08:04:54.607Z,3.20
2019-05-10T08:06:59.689Z,2.00
2019-05-10T08:09:06.277Z,1.55
2019-05-10T08:11:05.892Z,1.45
2019-05-10T08:13:10.219Z,1.65
2019-05-10T08:17:14.375Z,1.35
2019-05-10T08:19:16.426Z,1.70
2019-05-10T08:21:22.438Z,1.20
2019-05-10T08:23:26.579Z,1.10
2019-05-10T08:25:28.974Z,1.10
2019-05-10T08:27:32.468Z,1.60
2019-05-10T08:29:34.814Z,1.30
2019-05-10T08:31:40.385Z,1.80
2019-05-10T08:33:46.279Z,1.20
2019-05-10T08:35:46.506Z,1.52
2019-05-10T08:37:49.283Z,1.17
2019-05-10T08:39:55.833Z,1.20
2019-05-10T08:42:04.060Z,1.42
2019-05-10T08:44:02.405Z,1.40
2019-05-10T08:46:04.033Z,1.40
2019-05-10T08:48:07.163Z,1.17
2019-05-10T08:50:22.324Z,1.40
2019-05-10T08:52:13.809Z,1.35
2019-05-10T08:54:16.152Z,1.37
2019-05-10T08:56:23.413Z,1.40
2019-05-10T08:58:31.353Z,1.10
2019-05-10T09:00:41.609Z,1.60
2019-05-10T09:02:34.540Z,1.10
2019-05-10T09:04:42.721Z,1.40
2019-05-10T09:06:42.027Z,1.40
2019-05-10T09:08:44.201Z,1.52
2019-05-10T09:10:46.207Z,1.15
2019-05-10T09:12:54.391Z,1.10
2019-05-10T09:14:57.350Z,1.30
2019-05-10T09:17:03.457Z,2.65
2019-05-10T09:19:02.564Z,1.10
2019-05-10T09:21:08.756Z,1.30
2019-05-10T09:23:15.257Z,1.30
2019-05-10T09:25:14.168Z,1.55
2019-05-10T09:27:16.240Z,1.00
2019-05-10T09:29:18.259Z,1.30
2019-05-10T09:31:24.846Z,1.00
2019-05-10T09:33:24.580Z,1.30
2019-05-10T09:35:26.690Z,1.30
2019-05-10T09:37:29.001Z,1.50
2019-05-10T09:39:32.150Z,1.20
2019-05-10T09:41:38.195Z,1.30
2019-05-10T09:43:40.491Z,1.25
2019-05-10T09:45:42.563Z,1.00
2019-05-10T09:47:44.874Z,1.00
2019-05-10T09:49:54.050Z,1.22
2019-05-10T09:51:52.511Z,1.00
2019-05-10T09:53:57.628Z,1.32
2019-05-10T09:56:03.139Z,1.52
2019-05-10T09:58:04.493Z,1.00
2019-05-10T10:00:08.429Z,1.50
2019-05-10T10:02:15.648Z,1.30
2019-05-10T10:04:17.881Z,0.90
2019-05-10T10:06:19.552Z,1.40
2019-05-10T10:08:22.969Z,1.27
2019-05-10T10:10:30.101Z,1.15
2019-05-10T10:12:29.088Z,1.30
2019-05-10T10:14:37.803Z,1.20
2019-05-10T10:16:35.515Z,1.27
2019-05-10T10:18:37.814Z,1.12
2019-05-10T10:20:43.867Z,1.15
2019-05-10T10:22:52.628Z,1.30
2019-05-10T10:24:48.961Z,1.22
2019-05-10T10:26:53.923Z,1.50
2019-05-10T10:28:59.547Z,1.50
2019-05-10T10:31:05.112Z,1.35
2019-05-10T10:33:05.649Z,1.52
2019-05-10T10:35:13.374Z,1.07
2019-05-10T10:37:14.601Z,1.30
2019-05-10T10:39:22.890Z,1.25
2019-05-10T10:41:25.867Z,1.32
2019-05-10T10:43:27.210Z,1.00
2019-05-10T10:45:29.781Z,1.30
2019-05-10T10:47:32.351Z,1.20
2019-05-10T10:51:37.903Z,1.15
2019-05-10T10:53:40.480Z,1.65
2019-05-10T10:55:46.074Z,1.02
2019-05-10T10:57:48.281Z,1.35
2019-05-10T10:59:50.347Z,1.35
2019-05-10T11:02:25.322Z,1.30
2019-05-10T11:03:56.538Z,1.20
2019-05-10T11:05:58.632Z,1.60
2019-05-10T11:08:01.174Z,1.25
2019-05-10T11:10:14.931Z,1.07
2019-05-10T11:12:08.005Z,1.30
2019-05-10T11:14:11.089Z,1.67
2019-05-10T11:16:15.639Z,1.27
2019-05-10T11:18:17.516Z,1.32
2019-05-10T11:20:21.601Z,1.50
2019-05-10T11:22:27.200Z,1.25
2019-05-10T11:24:28.083Z,1.27
2019-05-10T11:26:32.901Z,1.40
2019-05-10T11:28:44.186Z,1.37
2019-05-10T11:30:38.643Z,1.50
2019-05-10T11:32:41.880Z,1.47
2019-05-10T11:34:44.477Z,1.30
2019-05-10T11:36:48.346Z,1.07
2019-05-10T11:38:56.917Z,1.47
2019-05-10T11:40:54.854Z,1.40
2019-05-10T11:42:57.017Z,1.20
2019-05-10T11:45:00.766Z,1.25
2019-05-10T11:47:03.143Z,1.20
2019-05-10T11:49:05.579Z,1.47
2019-05-10T11:53:13.308Z,1.50
2019-05-10T11:55:15.385Z,1.70
2019-05-10T11:57:17.705Z,1.55
2019-05-10T11:59:21.836Z,1.67
2019-05-10T12:01:24.077Z,1.17
2019-05-10T12:03:27.397Z,1.57
2019-05-10T12:05:31.973Z,1.77
2019-05-10T12:07:42.440Z,1.35
2019-05-10T12:09:38.084Z,1.30
2019-05-10T12:13:44.109Z,1.27
2019-05-10T12:15:46.093Z,1.32
2019-05-10T12:19:56.356Z,1.50
2019-05-10T12:22:07.789Z,1.60
2019-05-10T12:24:26.314Z,1.40
2019-05-10T12:26:05.336Z,1.70
2019-05-10T12:28:24.435Z,1.30
2019-05-10T12:30:23.971Z,1.20
2019-05-10T12:32:26.958Z,1.30
2019-05-10T12:34:31.139Z,1.50
2019-05-10T12:36:33.952Z,1.60
2019-05-10T12:40:41.746Z,1.47
2019-05-10T12:42:46.917Z,1.45
2019-05-10T12:44:48.221Z,1.45
2019-05-10T12:46:54.073Z,1.40
2019-05-10T12:48:55.123Z,1.80
2019-05-10T12:51:02.011Z,1.35
2019-05-10T12:53:12.654Z,1.37
2019-05-10T12:55:05.502Z,1.22
2019-05-10T12:59:09.099Z,1.52
2019-05-10T13:01:12.508Z,1.32
2019-05-10T13:03:19.009Z,1.37
2019-05-10T13:05:19.640Z,1.47
2019-05-10T13:07:23.818Z,1.30
2019-05-10T13:09:38.043Z,1.07
2019-05-10T13:11:29.783Z,1.32
2019-05-10T13:13:31.956Z,1.65
2019-05-10T13:15:34.013Z,1.42
2019-05-10T13:17:35.985Z,1.60
2019-05-10T13:19:38.235Z,1.40
2019-05-10T13:21:40.218Z,0.88
2019-05-10T13:23:42.230Z,1.42
2019-05-10T13:25:44.437Z,1.67
2019-05-10T13:27:46.480Z,1.70
2019-05-10T13:29:53.325Z,1.47
2019-05-10T13:31:52.759Z,1.77
2019-05-10T13:33:56.681Z,1.30
2019-05-10T13:35:59.080Z,1.00
2019-05-10T13:38:03.779Z,1.50
2019-05-10T13:40:07.965Z,1.80
2019-05-10T13:42:09.887Z,1.40
2019-05-10T13:44:12.507Z,1.50
2019-05-10T13:46:14.566Z,1.60
2019-05-10T13:48:16.732Z,1.27
2019-05-10T13:50:19.110Z,1.52
2019-05-10T13:54:23.040Z,1.42
2019-05-10T13:56:25.497Z,1.10
2019-05-10T14:00:36.086Z,1.50
2019-05-10T14:02:38.925Z,1.10
2019-05-10T14:04:40.930Z,1.80
2019-05-10T14:06:42.994Z,1.60
2019-05-10T14:08:48.413Z,1.25
2019-05-10T14:10:49.936Z,1.32
2019-05-10T14:12:55.995Z,1.45
2019-05-10T14:15:02.409Z,1.92
2019-05-10T14:17:00.308Z,1.90
2019-05-10T14:19:02.299Z,1.72
2019-05-10T14:21:04.556Z,1.50
2019-05-10T14:23:06.751Z,1.45
2019-05-10T14:25:10.123Z,1.37
2019-05-10T14:27:12.706Z,1.42
2019-05-10T14:29:14.741Z,1.57
2019-05-10T14:31:16.739Z,1.30
2019-05-10T14:33:20.422Z,1.30
2019-05-10T14:37:25.883Z,1.60
2019-05-10T14:39:27.891Z,1.37
2019-05-10T14:41:30.182Z,1.17
2019-05-10T14:43:32.161Z,1.35
2019-05-10T14:45:34.436Z,1.30
2019-05-10T14:47:46.741Z,1.90
2019-05-10T14:49:46.455Z,1.60
2019-05-10T14:51:58.455Z,2.02
2019-05-10T14:53:48.888Z,1.60
2019-05-10T14:55:50.885Z,1.30
2019-05-10T14:57:53.262Z,1.42
2019-05-10T14:59:55.346Z,1.15
2019-05-10T15:01:57.524Z,1.32
2019-05-10T15:03:59.846Z,1.50
2019-05-10T15:06:02.079Z,1.55
2019-05-10T15:08:04.330Z,1.80
2019-05-10T15:10:06.983Z,1.42
2019-05-10T15:12:10.312Z,1.50
2019-05-10T15:14:14.390Z,1.45
2019-05-10T15:16:26.027Z,1.60
2019-05-10T15:18:20.674Z,1.50
2019-05-10T15:20:22.728Z,1.70
2019-05-10T15:22:25.689Z,1.85
2019-05-10T15:24:27.737Z,1.70
2019-05-10T15:26:29.872Z,1.80
2019-05-10T15:28:34.520Z,1.27
2019-05-10T15:30:39.387Z,1.50
2019-05-10T15:32:40.404Z,1.40
2019-05-10T15:35:03.864Z,1.72
2019-05-10T15:36:48.457Z,1.45
2019-05-10T15:38:52.300Z,1.82
2019-05-10T15:40:54.800Z,1.70
2019-05-10T15:42:56.837Z,1.77
2019-05-10T15:45:05.241Z,1.60
2019-05-10T15:47:03.316Z,2.00
2019-05-10T15:49:06.722Z,1.82
2019-05-10T15:51:11.102Z,1.50
2019-05-10T15:53:12.892Z,1.07
2019-05-10T15:55:16.479Z,1.72
2019-05-10T15:57:21.669Z,1.70
2019-05-10T15:59:24.584Z,1.35
2019-05-10T16:01:28.982Z,1.60
2019-05-10T16:03:30.509Z,1.52
2019-05-10T16:05:43.127Z,1.70
2019-05-10T16:07:37.101Z,1.47
2019-05-10T16:09:39.525Z,1.77
2019-05-10T16:11:41.697Z,1.70
2019-05-10T16:13:43.710Z,1.52
2019-05-10T16:15:45.699Z,1.95
2019-05-10T16:17:47.928Z,1.60
2019-05-10T16:19:50.954Z,2.08
2019-05-10T16:21:58.036Z,1.50
2019-05-10T16:23:59.178Z,1.65
2019-05-10T16:26:01.621Z,1.50
2019-05-10T16:28:03.634Z,1.60
2019-05-10T16:30:11.874Z,1.47
2019-05-10T16:32:11.641Z,1.82
2019-05-10T16:34:13.647Z,1.37
2019-05-10T16:36:16.089Z,1.60
2019-05-10T16:40:20.289Z,1.67
2019-05-10T16:42:27.784Z,1.90
2019-05-10T16:44:27.481Z,1.50
2019-05-10T16:46:29.611Z,2.02
2019-05-10T16:48:31.914Z,1.72
2019-05-10T16:50:33.985Z,1.65
2019-05-10T16:52:37.104Z,1.47
2019-05-10T16:54:39.329Z,1.60
2019-05-10T16:56:41.980Z,1.62
2019-05-10T16:58:47.515Z,1.80
2019-05-10T17:00:49.249Z,1.70
2019-05-10T17:02:51.224Z,2.05
2019-05-10T17:04:53.424Z,1.80
2019-05-10T17:06:58.467Z,1.50
2019-05-10T17:08:59.627Z,1.75
2019-05-10T17:11:09.494Z,2.10
2019-05-10T17:13:06.687Z,1.82
2019-05-10T17:15:08.872Z,1.90
2019-05-10T17:17:10.868Z,1.67
2019-05-10T17:19:13.288Z,1.70
2019-05-10T17:21:15.632Z,1.98
2019-05-10T17:23:17.836Z,1.62
2019-05-10T17:25:22.623Z,2.02
2019-05-10T17:27:24.163Z,1.80
2019-05-10T17:29:26.588Z,1.87
2019-05-10T17:31:28.835Z,1.87
2019-05-10T17:33:30.830Z,1.90
2019-05-10T17:35:36.891Z,1.90
2019-05-10T17:37:37.539Z,1.80
2019-05-10T17:39:39.677Z,2.02
2019-05-10T17:41:41.853Z,2.10
2019-05-10T17:43:44.063Z,1.70
2019-05-10T17:45:46.334Z,1.57
2019-05-10T17:47:48.295Z,1.50
2019-05-10T17:49:52.330Z,1.47
2019-05-10T17:51:54.341Z,1.50
2019-05-10T17:54:01.529Z,1.65
2019-05-10T17:56:02.917Z,1.87
2019-05-10T17:58:04.484Z,1.50
2019-05-10T18:00:07.457Z,1.40
2019-05-10T18:02:09.637Z,2.00
2019-05-10T18:04:11.632Z,1.50
2019-05-10T18:06:23.613Z,1.67
2019-05-10T18:08:18.934Z,3.35
2019-05-10T18:10:20.996Z,1.30
2019-05-10T18:12:27.007Z,1.65
2019-05-10T18:14:29.524Z,1.50
2019-05-10T18:16:31.568Z,1.92
2019-05-10T18:18:35.162Z,1.65
2019-05-10T18:20:42.086Z,1.37
2019-05-10T18:22:45.033Z,1.50
2019-05-10T18:24:45.953Z,1.47
2019-05-10T18:26:48.367Z,1.85
2019-05-10T18:28:50.379Z,1.87
2019-05-10T18:30:52.704Z,1.55
2019-05-10T18:32:54.966Z,1.90
2019-05-10T18:34:57.065Z,2.02
2019-05-10T18:36:59.175Z,1.90
2019-05-10T18:39:01.460Z,1.62
2019-05-10T18:41:05.454Z,2.00
2019-05-10T18:43:07.939Z,2.47
2019-05-10T18:45:11.836Z,2.30
2019-05-10T18:47:14.012Z,2.10
2019-05-10T18:49:16.047Z,1.72
2019-05-10T18:51:24.499Z,1.70
2019-05-10T18:53:22.324Z,1.80
2019-05-10T18:55:24.373Z,1.95
2019-05-10T18:57:26.872Z,2.30
2019-05-10T19:01:38.533Z,1.98
2019-05-10T19:03:36.834Z,1.70
2019-05-10T19:05:39.041Z,2.10
2019-05-10T19:07:41.289Z,2.00
2019-05-10T19:09:43.447Z,2.02
2019-05-10T19:11:45.729Z,2.10
2019-05-10T19:13:53.766Z,2.10
2019-05-10T19:15:57.812Z,2.37
2019-05-10T19:17:57.002Z,1.80
2019-05-10T19:19:59.799Z,1.92
2019-05-10T19:22:02.991Z,1.98
2019-05-10T19:24:05.747Z,2.00
2019-05-10T19:26:08.049Z,2.40
2019-05-10T19:28:10.286Z,1.92
2019-05-10T19:30:12.568Z,2.12
2019-05-10T19:32:18.044Z,2.50
2019-05-10T19:34:18.857Z,2.20
2019-05-10T19:36:20.866Z,2.08
2019-05-10T19:38:23.156Z,2.42
2019-05-10T19:40:25.299Z,2.25
2019-05-10T19:42:31.195Z,2.30
2019-05-10T19:44:34.543Z,2.05
2019-05-10T19:46:39.370Z,2.30
2019-05-10T19:48:40.846Z,2.27
2019-05-10T19:50:43.106Z,2.27
2019-05-10T19:52:45.376Z,2.25
2019-05-10T19:54:47.506Z,2.33
2019-05-10T19:56:49.809Z,2.15
2019-05-10T19:58:51.825Z,2.08
2019-05-10T20:00:53.887Z,2.77
2019-05-10T20:02:56.098Z,2.55
2019-05-10T20:04:58.376Z,2.08
2019-05-10T20:07:00.393Z,2.25
2019-05-10T20:09:05.403Z,2.22
2019-05-10T20:11:07.484Z,2.35
2019-05-10T20:13:09.827Z,2.30
2019-05-10T20:15:12.366Z,2.92
2019-05-10T20:19:16.517Z,2.72
2019-05-10T20:21:18.662Z,2.55
2019-05-10T20:23:20.906Z,2.12
2019-05-10T20:25:23.002Z,2.62
2019-05-10T20:27:25.257Z,2.30
2019-05-10T20:29:27.493Z,2.50
2019-05-10T20:31:30.720Z,2.12
2019-05-10T20:33:36.260Z,2.25
2019-05-10T20:35:39.342Z,2.45
2019-05-10T20:37:41.519Z,2.02
2019-05-10T20:39:43.768Z,2.85
2019-05-10T20:41:45.805Z,2.45
2019-05-10T20:43:47.820Z,2.67
2019-05-10T20:45:50.059Z,2.87
2019-05-10T20:47:52.102Z,2.62
2019-05-10T20:49:54.298Z,2.90
2019-05-10T20:51:56.833Z,2.77
2019-05-10T20:53:59.050Z,2.75
2019-05-10T20:56:04.212Z,3.08
2019-05-10T20:58:06.893Z,3.20
2019-05-10T21:00:09.268Z,3.40
2019-05-10T21:02:11.879Z,3.27
2019-05-10T21:04:14.258Z,3.15
2019-05-10T21:06:16.348Z,3.00
2019-05-10T21:08:19.584Z,3.10
2019-05-10T21:10:22.079Z,3.12
2019-05-10T21:14:28.624Z,3.17
2019-05-10T21:16:30.818Z,3.02
2019-05-10T21:20:34.694Z,3.37
2019-05-10T21:22:36.999Z,3.65
2019-05-10T21:24:39.112Z,3.67
2019-05-10T21:26:41.116Z,3.67
2019-05-10T21:28:43.732Z,2.90
2019-05-10T21:30:45.768Z,3.30
2019-05-10T21:32:47.847Z,3.37
2019-05-10T21:34:50.193Z,3.60
2019-05-10T21:36:52.238Z,3.45
2019-05-10T21:38:54.333Z,3.00
2019-05-10T21:40:56.720Z,3.52
2019-05-10T21:42:58.945Z,2.70
2019-05-10T21:45:00.955Z,3.00
2019-05-10T21:47:02.978Z,3.17
2019-05-10T21:49:05.017Z,3.37
2019-05-10T21:51:07.293Z,3.30
2019-05-10T21:53:11.418Z,3.25
2019-05-10T21:55:13.511Z,3.20
2019-05-10T21:57:16.966Z,3.30
2019-05-10T21:59:19.057Z,3.62
2019-05-10T22:01:21.424Z,3.47
2019-05-10T22:05:25.420Z,3.22
2019-05-10T22:07:27.402Z,2.70
2019-05-10T22:09:29.887Z,3.00
2019-05-10T22:11:32.108Z,3.10
2019-05-10T22:15:36.676Z,2.90
2019-05-10T22:17:38.922Z,3.37
2019-05-10T22:19:42.180Z,2.80
2019-05-10T22:21:44.198Z,3.40
2019-05-10T22:23:46.442Z,2.85
2019-05-10T22:25:48.432Z,3.33
2019-05-10T22:27:50.476Z,3.25
2019-05-10T22:29:52.618Z,3.17
2019-05-10T22:31:54.668Z,3.17
2019-05-10T22:33:57.309Z,3.60
2019-05-10T22:35:59.631Z,3.30
2019-05-10T22:40:03.935Z,3.35
2019-05-10T22:44:10.892Z,3.15
2019-05-10T22:46:12.904Z,3.45
2019-05-10T22:48:14.908Z,3.00
2019-05-10T22:50:17.042Z,3.17
2019-05-10T22:52:19.047Z,2.77
2019-05-10T22:54:21.303Z,3.08
2019-05-10T22:56:24.433Z,2.75
2019-05-10T22:58:26.482Z,3.17
2019-05-10T23:00:28.819Z,2.87
2019-05-10T23:02:30.930Z,3.00
2019-05-10T23:04:32.956Z,3.60
2019-05-10T23:06:35.112Z,3.20
2019-05-10T23:08:37.554Z,3.00
2019-05-10T23:12:41.397Z,3.17
2019-05-10T23:14:43.546Z,2.72
2019-05-10T23:16:45.578Z,3.42
2019-05-10T23:18:47.982Z,3.15
2019-05-10T23:22:52.043Z,3.20
2019-05-10T23:24:54.286Z,3.70
2019-05-10T23:26:56.418Z,3.30
2019-05-10T23:28:58.445Z,3.37
2019-05-10T23:31:00.694Z,3.17
2019-05-10T23:33:02.835Z,3.40
2019-05-10T23:35:06.672Z,3.12
2019-05-10T23:37:08.912Z,3.37
2019-05-10T23:39:11.008Z,3.22
2019-05-10T23:41:13.123Z,3.50
2019-05-10T23:43:15.512Z,4.42
2019-05-10T23:45:18.844Z,3.58
2019-05-10T23:47:20.853Z,3.95
2019-05-10T23:49:23.326Z,3.90
2019-05-10T23:53:27.042Z,3.60
2019-05-10T23:56:19.574Z,3.55
2019-05-10T23:58:21.592Z,3.40
